Time;durP1;ratioP1;P1;durP2;ratioP2;P2;SDS_P1;SDS_P2;PMS_P1;PMS_P2;Temp;Humidity;BMP_temperature;BMP_pressure;BME280_temperature;BME280_humidity;BME280_pressure;Samples;Min_cycle;Max_cycle;Signal;HPM_P1;HPM_P2
2022/04/06 00:00:48;;;;;;;45.58;23.65;;;;;;;;;;5073002;28;20373;-66
2022/04/06 00:03:15;;;;;;;49.92;24.15;;;;;;;;;;5054920;28;20380;-65
2022/04/06 00:05:41;;;;;;;47.70;24.77;;;;;;;;;;5072651;28;20385;-66
2022/04/06 00:08:08;;;;;;;53.67;26.63;;;;;;;;;;5072875;28;20032;-65
2022/04/06 00:10:34;;;;;;;63.67;29.55;;;;;;;;;;5054825;28;20465;-66
2022/04/06 00:13:00;;;;;;;59.50;33.33;;;;;;;;;;5055081;28;20460;-66
2022/04/06 00:15:26;;;;;;;72.47;36.08;;;;;;;;;;5072511;28;20513;-66
2022/04/06 00:17:53;;;;;;;75.60;36.47;;;;;;;;;;5054730;28;20143;-65
2022/04/06 00:20:19;;;;;;;75.97;39.35;;;;;;;;;;5072786;28;20043;-65
2022/04/06 00:22:46;;;;;;;78.80;40.65;;;;;;;;;;5073015;28;20402;-64
2022/04/06 00:25:12;;;;;;;75.35;38.85;;;;;;;;;;5073045;28;20059;-64
2022/04/06 00:27:38;;;;;;;67.32;36.60;;;;;;;;;;5072699;28;20373;-64
2022/04/06 00:30:05;;;;;;;82.10;38.25;;;;;;;;;;5072655;28;20040;-64
2022/04/06 00:32:31;;;;;;;78.85;37.58;;;;;;;;;;5054617;28;20112;-64
2022/04/06 00:37:42;;;;;;;71.80;38.03;;;;;;;;;;5072411;28;20120;-64
2022/04/06 00:40:09;;;;;;;65.35;33.65;;;;;;;;;;5054643;28;20121;-64
2022/04/06 00:42:35;;;;;;;66.00;32.55;;;;;;;;;;5075068;28;20107;-64
2022/04/06 00:45:01;;;;;;;62.15;31.70;;;;;;;;;;5076393;28;20036;-64
2022/04/06 00:47:28;;;;;;;62.55;33.63;;;;;;;;;;5076542;28;20029;-64
2022/04/06 00:49:54;;;;;;;75.82;35.60;;;;;;;;;;5076384;28;20033;-64
2022/04/06 00:52:21;;;;;;;73.88;33.38;;;;;;;;;;5058327;28;20119;-64
2022/04/06 00:54:47;;;;;;;70.30;33.80;;;;;;;;;;5076152;28;20082;-64
2022/04/06 00:57:14;;;;;;;82.25;36.00;;;;;;;;;;5076085;28;20198;-64
2022/04/06 00:59:41;;;;;;;70.40;34.70;;;;;;;;;;5058138;28;20032;-64
2022/04/06 01:02:07;;;;;;;68.85;33.63;;;;;;;;;;5076364;28;20481;-65
2022/04/06 01:04:34;;;;;;;65.20;30.42;;;;;;;;;;5076050;28;20036;-64
2022/04/06 01:07:00;;;;;;;64.78;31.35;;;;;;;;;;5075983;28;20033;-64
2022/04/06 01:09:29;;;;;;;62.88;27.23;;;;;;;;;;5075828;28;20040;-65
2022/04/06 01:11:55;;;;;;;62.47;26.73;;;;;;;;;;5076028;28;20465;-64
2022/04/06 01:14:21;;;;;;;61.78;23.90;;;;;;;;;;5057861;28;20120;-65
2022/04/06 01:17:01;;;;;;;64.35;28.65;;;;;;;;;;5075604;28;20097;-64
2022/04/06 01:19:31;;;;;;;71.13;33.60;;;;;;;;;;5075844;28;20028;-64
2022/04/06 01:21:58;;;;;;;65.80;33.78;;;;;;;;;;5075796;28;20472;-64
2022/04/06 01:24:24;;;;;;;72.05;34.33;;;;;;;;;;5075651;28;20024;-65
2022/04/06 01:26:50;;;;;;;66.13;34.90;;;;;;;;;;5075637;28;20105;-67
2022/04/06 01:29:17;;;;;;;66.85;34.42;;;;;;;;;;5075527;28;20116;-66
2022/04/06 01:31:43;;;;;;;78.93;37.13;;;;;;;;;;5075576;28;20028;-65
2022/04/06 01:34:09;;;;;;;67.22;33.92;;;;;;;;;;5075782;28;20028;-65
2022/04/06 01:36:35;;;;;;;61.65;31.33;;;;;;;;;;5057438;28;20031;-64
2022/04/06 01:39:01;;;;;;;74.43;34.40;;;;;;;;;;5075146;28;20050;-66
2022/04/06 01:41:31;;;;;;;61.35;32.10;;;;;;;;;;5075379;28;20024;-65
2022/04/06 01:43:58;;;;;;;51.05;26.63;;;;;;;;;;5075307;28;20075;-65
2022/04/06 01:46:24;;;;;;;54.78;27.08;;;;;;;;;;5075283;28;20039;-65
2022/04/06 01:52:20;;;;;;;41.03;22.15;;;;;;;;;;5075230;28;20070;-65
2022/04/06 01:54:28;;;;;;;47.35;24.35;;;;;;;;;;5063996;28;20047;-65
2022/04/06 01:56:54;;;;;;;51.10;25.23;;;;;;;;;;5075170;28;20024;-65
2022/04/06 01:59:20;;;;;;;48.38;25.85;;;;;;;;;;5057033;28;20543;-65
2022/04/06 02:01:50;;;;;;;57.15;27.25;;;;;;;;;;5056985;28;20119;-66
2022/04/06 02:04:16;;;;;;;44.70;22.60;;;;;;;;;;5056927;28;20035;-65
2022/04/06 02:06:42;;;;;;;51.28;25.85;;;;;;;;;;5074898;28;20102;-67
2022/04/06 02:09:09;;;;;;;45.33;23.80;;;;;;;;;;5056854;28;20021;-66
2022/04/06 02:11:36;;;;;;;51.42;24.20;;;;;;;;;;5074829;28;20039;-65
2022/04/06 02:14:04;;;;;;;47.10;22.40;;;;;;;;;;5074718;28;20028;-65
2022/04/06 02:16:30;;;;;;;58.05;24.90;;;;;;;;;;5074228;28;20450;-65
2022/04/06 02:18:57;;;;;;;42.53;22.45;;;;;;;;;;5074627;28;20028;-66
2022/04/06 02:21:23;;;;;;;142.23;63.08;;;;;;;;;;5074288;28;20099;-65
2022/04/06 02:23:49;;;;;;;180.93;79.00;;;;;;;;;;5074815;28;20115;-66
2022/04/06 02:26:16;;;;;;;308.80;125.85;;;;;;;;;;5056464;28;20028;-65
2022/04/06 02:28:42;;;;;;;437.35;187.23;;;;;;;;;;5074396;28;20048;-65
2022/04/06 02:31:08;;;;;;;152.90;65.78;;;;;;;;;;5074343;28;20033;-64
2022/04/06 02:33:34;;;;;;;156.13;62.25;;;;;;;;;;5074293;28;20025;-64
2022/04/06 02:36:01;;;;;;;158.80;67.95;;;;;;;;;;5074263;28;20026;-65
2022/04/06 02:38:27;;;;;;;152.10;68.22;;;;;;;;;;5074236;28;20033;-66
2022/04/06 02:40:53;;;;;;;163.88;70.63;;;;;;;;;;5056284;28;20031;-64
2022/04/06 02:43:19;;;;;;;137.05;60.50;;;;;;;;;;5073860;28;20389;-64
2022/04/06 02:45:47;;;;;;;157.68;69.50;;;;;;;;;;5074034;28;20101;-64
2022/04/06 02:48:13;;;;;;;131.50;63.22;;;;;;;;;;5056098;28;20024;-64
2022/04/06 02:50:40;;;;;;;180.48;78.78;;;;;;;;;;5055874;28;20055;-66
2022/04/06 02:53:06;;;;;;;100.43;45.50;;;;;;;;;;5056001;28;20457;-67
2022/04/06 02:55:32;;;;;;;57.08;28.88;;;;;;;;;;5073935;28;20078;-63
2022/04/06 02:57:58;;;;;;;58.17;26.27;;;;;;;;;;5073796;28;20107;-67
2022/04/06 03:00:25;;;;;;;62.50;27.67;;;;;;;;;;5073715;28;20519;-66
2022/04/06 03:02:51;;;;;;;52.15;26.38;;;;;;;;;;5073813;28;20020;-66
2022/04/06 03:05:18;;;;;;;50.00;22.15;;;;;;;;;;5073135;28;20024;-65
2022/04/06 03:07:44;;;;;;;79.32;33.58;;;;;;;;;;5073876;28;20131;-65
2022/04/06 03:10:10;;;;;;;93.72;41.90;;;;;;;;;;5073506;28;20120;-64
2022/04/06 03:12:37;;;;;;;98.80;41.58;;;;;;;;;;5073625;28;20119;-67
2022/04/06 03:15:03;;;;;;;98.10;40.75;;;;;;;;;;5073598;28;20501;-67
2022/04/06 03:17:29;;;;;;;83.35;35.15;;;;;;;;;;5055486;28;20028;-65
2022/04/06 03:19:55;;;;;;;98.70;34.33;;;;;;;;;;5073712;28;20024;-64
2022/04/06 03:22:21;;;;;;;76.63;33.67;;;;;;;;;;5073448;28;20082;-64
2022/04/06 03:24:48;;;;;;;85.50;33.30;;;;;;;;;;5055360;28;20028;-64
2022/04/06 03:27:14;;;;;;;79.22;33.20;;;;;;;;;;5073330;28;20029;-65
2022/04/06 03:29:41;;;;;;;70.43;35.53;;;;;;;;;;5073280;28;20043;-67
2022/04/06 03:32:08;;;;;;;89.60;49.53;;;;;;;;;;5073314;28;20031;-65
2022/04/06 03:34:34;;;;;;;59.20;31.17;;;;;;;;;;5073246;28;20117;-67
2022/04/06 03:37:00;;;;;;;45.60;24.42;;;;;;;;;;5055308;28;20583;-64
2022/04/06 03:39:27;;;;;;;41.00;23.80;;;;;;;;;;5073478;28;20143;-64
2022/04/06 03:41:53;;;;;;;40.63;21.50;;;;;;;;;;5073490;28;20028;-66
2022/04/06 03:44:19;;;;;;;46.80;23.23;;;;;;;;;;5055153;28;20484;-64
2022/04/06 03:46:45;;;;;;;42.38;20.90;;;;;;;;;;5072832;28;20108;-64
2022/04/06 03:49:12;;;;;;;48.55;21.00;;;;;;;;;;5073302;28;20027;-65
2022/04/06 03:51:38;;;;;;;36.40;19.20;;;;;;;;;;5054613;28;20028;-64
2022/04/06 03:54:04;;;;;;;41.75;19.15;;;;;;;;;;5072993;28;20024;-64
2022/04/06 03:56:31;;;;;;;47.47;21.40;;;;;;;;;;5072780;28;20441;-64
2022/04/06 03:58:57;;;;;;;58.30;27.13;;;;;;;;;;5072944;28;20057;-64
2022/04/06 04:01:23;;;;;;;50.65;25.20;;;;;;;;;;5054976;28;20036;-64
2022/04/06 04:03:50;;;;;;;48.50;21.67;;;;;;;;;;5073210;28;20025;-66
2022/04/06 04:06:16;;;;;;;35.42;19.95;;;;;;;;;;5072858;28;20020;-63
2022/04/06 04:08:42;;;;;;;41.92;20.05;;;;;;;;;;5054862;28;20020;-64
2022/04/06 04:11:09;;;;;;;37.10;17.83;;;;;;;;;;5054811;28;20033;-64
2022/04/06 04:13:35;;;;;;;29.25;15.73;;;;;;;;;;5073155;28;20024;-64
2022/04/06 04:16:01;;;;;;;29.42;14.82;;;;;;;;;;5072649;28;20102;-66
2022/04/06 04:18:27;;;;;;;27.30;15.20;;;;;;;;;;5076923;28;20035;-65
2022/04/06 04:23:39;;;;;;;40.78;17.90;;;;;;;;;;5076643;28;20039;-65
2022/04/06 04:26:05;;;;;;;66.97;23.33;;;;;;;;;;5076798;28;20016;-63
2022/04/06 04:28:31;;;;;;;58.85;25.65;;;;;;;;;;5058746;28;20071;-64
2022/04/06 04:30:58;;;;;;;55.80;27.13;;;;;;;;;;5058629;28;20081;-66
2022/04/06 04:33:24;;;;;;;53.88;26.30;;;;;;;;;;5076727;28;20025;-65
2022/04/06 04:35:50;;;;;;;42.70;21.23;;;;;;;;;;5058621;28;20107;-66
2022/04/06 04:38:16;;;;;;;58.15;27.05;;;;;;;;;;5076571;28;20052;-66
2022/04/06 04:40:42;;;;;;;60.63;26.42;;;;;;;;;;5076408;28;20025;-66
2022/04/06 04:43:08;;;;;;;76.40;27.23;;;;;;;;;;5076502;28;20086;-66
2022/04/06 04:45:35;;;;;;;74.63;29.65;;;;;;;;;;5076131;28;20020;-67
2022/04/06 04:48:01;;;;;;;74.18;30.17;;;;;;;;;;5076363;28;20063;-66
2022/04/06 04:50:28;;;;;;;70.15;29.77;;;;;;;;;;5076215;28;20028;-66
2022/04/06 04:52:54;;;;;;;78.60;31.60;;;;;;;;;;5076307;28;20032;-66
2022/04/06 04:55:20;;;;;;;79.35;31.48;;;;;;;;;;5058473;28;20438;-65
2022/04/06 04:57:46;;;;;;;88.00;35.35;;;;;;;;;;5058181;28;20021;-65
2022/04/06 05:00:13;;;;;;;69.50;35.28;;;;;;;;;;5076110;28;20473;-65
2022/04/06 05:02:39;;;;;;;74.15;36.72;;;;;;;;;;5076085;28;20081;-65
2022/04/06 05:05:06;;;;;;;75.70;38.08;;;;;;;;;;5076040;28;20047;-65
2022/04/06 05:07:37;;;;;;;95.80;38.63;;;;;;;;;;5058061;28;20036;-65
2022/04/06 05:10:05;;;;;;;72.55;35.20;;;;;;;;;;5075965;28;20032;-65
2022/04/06 05:12:31;;;;;;;81.57;37.38;;;;;;;;;;5057927;28;20028;-65
2022/04/06 05:14:59;;;;;;;83.53;33.05;;;;;;;;;;5075795;28;20032;-65
2022/04/06 05:17:25;;;;;;;82.57;34.97;;;;;;;;;;5075852;28;20131;-64
2022/04/06 05:19:52;;;;;;;86.20;33.45;;;;;;;;;;5075726;28;20404;-65
2022/04/06 05:22:18;;;;;;;77.32;33.97;;;;;;;;;;5057735;28;20029;-65
2022/04/06 05:24:44;;;;;;;79.00;35.05;;;;;;;;;;5075833;28;20119;-63
2022/04/06 05:27:10;;;;;;;76.57;33.30;;;;;;;;;;5057280;28;20362;-64
2022/04/06 05:29:36;;;;;;;71.63;33.45;;;;;;;;;;5075371;28;20115;-63
2022/04/06 05:32:03;;;;;;;77.88;36.47;;;;;;;;;;5075730;28;20481;-64
2022/04/06 05:34:29;;;;;;;86.53;36.53;;;;;;;;;;5075439;28;20028;-64
2022/04/06 05:36:55;;;;;;;78.20;35.55;;;;;;;;;;5075681;28;20028;-64
2022/04/06 05:39:22;;;;;;;89.32;37.38;;;;;;;;;;5075613;28;20077;-64
2022/04/06 05:41:49;;;;;;;82.50;36.38;;;;;;;;;;5075159;28;20077;-63
2022/04/06 05:44:16;;;;;;;80.15;37.20;;;;;;;;;;5074375;28;20365;-63
2022/04/06 05:46:42;;;;;;;105.38;45.75;;;;;;;;;;5074294;28;20036;-64
2022/04/06 05:49:08;;;;;;;99.88;43.80;;;;;;;;;;5056920;28;20112;-64
2022/04/06 05:51:35;;;;;;;102.88;45.00;;;;;;;;;;5074924;28;20059;-64
2022/04/06 05:54:04;;;;;;;109.88;45.03;;;;;;;;;;5075084;28;20025;-64
2022/04/06 05:56:30;;;;;;;96.55;45.42;;;;;;;;;;5074950;28;20025;-64
2022/04/06 05:58:57;;;;;;;93.60;44.13;;;;;;;;;;5056633;28;20043;-64
2022/04/06 06:01:23;;;;;;;95.88;40.45;;;;;;;;;;5074719;28;20450;-64
2022/04/06 06:03:49;;;;;;;91.60;40.75;;;;;;;;;;5074816;28;20107;-64
2022/04/06 06:06:16;;;;;;;82.18;38.22;;;;;;;;;;5074868;28;20063;-64
2022/04/06 06:08:42;;;;;;;83.78;39.28;;;;;;;;;;5056624;28;20046;-64
2022/04/06 06:11:09;;;;;;;83.75;40.20;;;;;;;;;;5074580;28;20029;-65
2022/04/06 06:13:35;;;;;;;93.47;44.42;;;;;;;;;;5074705;28;20029;-64
2022/04/06 06:16:01;;;;;;;90.68;40.60;;;;;;;;;;5074252;28;20044;-64
2022/04/06 06:18:28;;;;;;;84.43;42.05;;;;;;;;;;5074865;28;20356;-65
2022/04/06 06:20:56;;;;;;;193.25;84.70;;;;;;;;;;5074674;28;20033;-64
2022/04/06 06:23:22;;;;;;;262.95;99.93;;;;;;;;;;5056572;28;20457;-66
2022/04/06 06:25:49;;;;;;;130.32;59.35;;;;;;;;;;5074292;28;20028;-68
2022/04/06 06:28:15;;;;;;;87.57;43.85;;;;;;;;;;5074340;28;20031;-66
2022/04/06 06:30:41;;;;;;;82.47;42.30;;;;;;;;;;5074245;28;20039;-66
2022/04/06 06:33:07;;;;;;;79.05;40.72;;;;;;;;;;5074420;28;20074;-67
2022/04/06 06:35:33;;;;;;;78.40;36.88;;;;;;;;;;5074155;28;20056;-66
2022/04/06 06:37:59;;;;;;;63.70;32.17;;;;;;;;;;5074180;28;20082;-66
2022/04/06 06:40:27;;;;;;;70.28;33.63;;;;;;;;;;5067129;28;20784;-66
2022/04/06 06:42:53;;;;;;;65.88;33.40;;;;;;;;;;5060641;28;20032;-66
2022/04/06 06:45:20;;;;;;;59.15;31.35;;;;;;;;;;5056733;28;20059;-67
2022/04/06 06:47:46;;;;;;;54.33;29.23;;;;;;;;;;5055605;28;20458;-67
2022/04/06 06:50:13;;;;;;;52.20;27.67;;;;;;;;;;5073452;28;20029;-67
2022/04/06 06:52:39;;;;;;;60.17;25.83;;;;;;;;;;5057933;28;20037;-65
2022/04/06 06:55:10;;;;;;;42.97;21.83;;;;;;;;;;5053252;28;20033;-66
2022/04/06 06:57:36;;;;;;;37.17;21.25;;;;;;;;;;5053766;28;20094;-69
2022/04/06 07:00:03;;;;;;;39.83;21.15;;;;;;;;;;5035836;28;20052;-68
2022/04/06 07:02:29;;;;;;;45.20;24.48;;;;;;;;;;5035705;28;20537;-65
2022/04/06 07:04:55;;;;;;;50.08;22.17;;;;;;;;;;5053879;28;20029;-68
2022/04/06 07:07:22;;;;;;;91.75;44.00;;;;;;;;;;5053593;28;20039;-68
2022/04/06 07:09:48;;;;;;;97.35;43.78;;;;;;;;;;5053690;28;20039;-68
2022/04/06 07:12:14;;;;;;;111.43;48.28;;;;;;;;;;5053232;28;20029;-67
2022/04/06 07:14:40;;;;;;;83.88;43.50;;;;;;;;;;5053764;28;20033;-67
2022/04/06 07:17:06;;;;;;;66.75;35.40;;;;;;;;;;5052834;28;20154;-69
2022/04/06 07:19:32;;;;;;;57.38;31.70;;;;;;;;;;5036788;28;20082;-69
2022/04/06 07:21:59;;;;;;;93.68;46.95;;;;;;;;;;5053001;28;20107;-66
2022/04/06 07:24:25;;;;;;;82.32;40.80;;;;;;;;;;5053221;28;20025;-69
2022/04/06 07:26:51;;;;;;;78.90;42.85;;;;;;;;;;5053007;28;20482;-69
2022/04/06 07:29:17;;;;;;;84.32;42.03;;;;;;;;;;5035050;28;20035;-67
2022/04/06 07:31:43;;;;;;;51.97;26.95;;;;;;;;;;5052988;28;20043;-68
2022/04/06 07:34:10;;;;;;;67.90;38.95;;;;;;;;;;5053338;28;20078;-68
2022/04/06 07:36:36;;;;;;;67.70;38.03;;;13.70;94.50;;;;;;5052771;28;20131;-67
2022/04/06 07:39:05;;;;;;;59.40;34.55;;;13.60;94.90;;;;;;5034852;28;20031;-67
2022/04/06 07:41:32;;;;;;;66.25;36.50;;;13.70;93.70;;;;;;5052785;28;20108;-69
2022/04/06 07:43:58;;;;;;;69.80;39.15;;;13.90;93.60;;;;;;5052447;28;20025;-67
2022/04/06 07:46:24;;;;;;;63.38;38.15;;;14.10;94.50;;;;;;5053161;28;20060;-69
2022/04/06 07:48:50;;;;;;;77.07;44.60;;;14.30;93.50;;;;;;5052770;28;20466;-68
2022/04/06 07:51:16;;;;;;;71.43;37.95;;;14.50;92.40;;;;;;5034658;28;20085;-68
2022/04/06 07:53:43;;;;;;;59.80;36.47;;;14.70;92.10;;;;;;5052944;28;20021;-67
2022/04/06 07:56:09;;;;;;;52.65;30.50;;;14.80;90.70;;;;;;5053169;28;20025;-68
2022/04/06 07:58:35;;;;;;;63.63;31.67;;;15.00;88.90;;;;;;5052922;28;20478;-67
2022/04/06 08:01:02;;;;;;;56.75;32.42;;;15.20;89.20;;;;;;5053136;28;20381;-64
2022/04/06 08:03:29;;;;;;;54.22;29.23;;;15.40;88.30;;;;;;5052853;28;20028;-66
2022/04/06 08:05:56;;;;;;;64.43;31.15;;;;;;;;;;5052744;28;20033;-66
2022/04/06 08:08:22;;;;;;;53.42;29.73;;;15.50;84.70;;;;;;5034767;28;20021;-68
2022/04/06 08:10:48;;;;;;;62.75;31.13;;;16.00;85.30;;;;;;5052657;28;20029;-67
2022/04/06 08:13:14;;;;;;;67.70;32.83;;;16.20;86.00;;;;;;5051773;28;20389;-67
2022/04/06 08:15:40;;;;;;;48.10;27.30;;;16.40;86.90;;;;;;5051104;28;20120;-67
2022/04/06 08:18:06;;;;;;;50.20;26.75;;;16.60;80.00;;;;;;5052480;28;20029;-66
2022/04/06 08:20:33;;;;;;;42.78;23.98;;;16.90;82.30;;;;;;5052662;28;20033;-67
2022/04/06 08:22:59;;;;;;;33.80;17.20;;;17.10;79.50;;;;;;5052573;28;20021;-66
2022/04/06 08:25:25;;;;;;;35.13;13.98;;;17.20;76.80;;;;;;5034778;28;20029;-68
2022/04/06 08:27:51;;;;;;;49.42;17.20;;;17.40;73.50;;;;;;5034749;28;20028;-66
2022/04/06 08:30:20;;;;;;;34.15;15.98;;;17.70;78.30;;;;;;5052456;28;20365;-66
2022/04/06 08:32:46;;;;;;;41.85;18.30;;;17.90;73.40;;;;;;5052343;28;20427;-67
2022/04/06 08:35:12;;;;;;;46.67;19.63;;;;;;;;;;5052494;28;20064;-67
2022/04/06 08:37:39;;;;;;;33.42;18.20;;;18.20;74.20;;;;;;5034589;28;20091;-67
2022/04/06 08:40:12;;;;;;;33.95;16.10;;;18.60;74.30;;;;;;5052498;28;20064;-68
2022/04/06 08:42:39;;;;;;;40.00;13.85;;;18.90;74.50;;;;;;5052466;28;20036;-67
2022/04/06 08:45:06;;;;;;;33.78;17.60;;;19.00;68.20;;;;;;5034531;28;20081;-67
2022/04/06 08:47:33;;;;;;;22.40;12.25;;;19.10;69.80;;;;;;5052434;28;20057;-68
2022/04/06 08:50:05;;;;;;;26.80;10.32;;;19.30;68.80;;;;;;5053113;28;20515;-67
2022/04/06 08:52:35;;;;;;;34.30;13.77;;;19.40;68.00;;;;;;5034459;28;20366;-67
2022/04/06 08:55:02;;;;;;;26.45;15.93;;;19.70;69.70;;;;;;5052471;28;20021;-67
2022/04/06 08:57:28;;;;;;;21.02;13.52;;;19.90;69.20;;;;;;5034383;28;20031;-68
2022/04/06 08:59:54;;;;;;;20.77;9.57;;;20.10;68.10;;;;;;5052233;28;20111;-68
2022/04/06 09:02:22;;;;;;;15.73;8.43;;;20.20;65.00;;;;;;5050385;28;20049;-69
2022/04/06 09:04:55;;;;;;;23.77;14.48;;;20.40;65.20;;;;;;5037539;28;20032;-68
2022/04/06 09:07:23;;;;;;;57.40;10.60;;;20.60;67.60;;;;;;5037773;28;20036;-69
2022/04/06 09:09:53;;;;;;;21.48;10.63;;;20.70;64.80;;;;;;5037709;28;20029;-65
2022/04/06 09:12:21;;;;;;;17.42;8.30;;;20.90;67.20;;;;;;5055728;28;20048;-66
2022/04/06 09:14:48;;;;;;;12.55;8.02;;;21.10;66.40;;;;;;5055455;28;20036;-71
2022/04/06 09:17:22;;;;;;;13.50;7.18;;;21.30;63.00;;;;;;5033774;28;20042;-70
2022/04/06 09:19:52;;;;;;;18.40;7.78;;;21.40;64.50;;;;;;5032080;28;20021;-68
2022/04/06 09:22:18;;;;;;;12.48;6.38;;;21.60;62.90;;;;;;5022956;28;20080;-70
2022/04/06 09:24:54;;;;;;;14.05;8.18;;;21.80;62.60;;;;;;5013497;28;20037;-68
2022/04/06 09:27:20;;;;;;;17.45;9.40;;;22.00;62.40;;;;;;5034216;28;20034;-69
2022/04/06 09:29:49;;;;;;;14.25;6.45;;;22.30;62.60;;;;;;5034765;28;20036;-73
2022/04/06 09:32:15;;;;;;;16.17;4.50;;;22.40;60.70;;;;;;5034279;28;20068;-73
2022/04/06 09:34:42;;;;;;;10.20;5.50;;;22.40;57.10;;;;;;5033168;28;20065;-70
2022/04/06 09:37:41;;;;;;;17.10;5.30;;;22.50;56.80;;;;;;5035079;28;20052;-71
2022/04/06 09:40:08;;;;;;;8.02;4.80;;;;;;;;;;4954752;29;20207;-72
2022/04/06 09:42:34;;;;;;;8.30;4.30;;;22.70;59.80;;;;;;4954271;29;20106;-70
2022/04/06 09:47:52;;;;;;;7.38;4.50;;;23.20;53.30;;;;;;4951610;29;20046;-71
2022/04/06 09:50:22;;;;;;;6.38;3.58;;;;;;;;;;4954073;29;20512;-72
2022/04/06 09:52:49;;;;;;;5.45;3.42;;;;;;;;;;4954154;29;20027;-75
2022/04/06 09:55:17;;;;;;;5.80;3.08;;;23.40;53.80;;;;;;4953889;29;20027;-73
2022/04/06 09:57:51;;;;;;;7.72;4.47;;;24.00;53.20;;;;;;4954181;29;20059;-73
2022/04/06 10:00:26;;;;;;;8.70;4.00;;;24.20;52.60;;;;;;4954052;29;20563;-73
2022/04/06 10:03:05;;;;;;;8.35;3.70;;;24.30;49.80;;;;;;4954096;28;20043;-72
2022/04/06 10:05:33;;;;;;;11.27;3.92;;;24.50;50.70;;;;;;4953771;29;20113;-71
2022/04/06 10:08:05;;;;;;;6.35;4.03;;;;;;;;;;4953996;29;20572;-70
2022/04/06 10:10:38;;;;;;;5.10;2.92;;;24.70;51.10;;;;;;4937725;29;20055;-70
2022/04/06 10:13:05;;;;;;;5.45;3.22;;;24.90;49.50;;;;;;4953235;28;20039;-74
2022/04/06 10:15:31;;;;;;;9.48;3.78;;;25.00;49.40;;;;;;4983824;28;20081;-70
2022/04/06 10:17:57;;;;;;;8.70;2.80;;;25.10;48.00;;;;;;5034871;28;20030;-70
2022/04/06 10:20:29;;;;;;;5.60;3.05;;;25.20;47.60;;;;;;5034450;28;20088;-70
2022/04/06 10:23:10;;;;;;;;;;;25.50;47.90;;;;;;5034749;28;20024;-69
2022/04/06 10:25:54;;;;;;;5.18;3.35;;;25.70;48.20;;;;;;5016662;28;19955;-70
2022/04/06 10:28:24;;;;;;;4.75;2.67;;;26.00;47.60;;;;;;5034519;28;20029;-70
2022/04/06 10:31:12;;;;;;;4.85;2.80;;;26.50;48.00;;;;;;5016503;28;20124;-69
2022/04/06 10:33:38;;;;;;;5.03;2.88;;;;;;;;;;5034578;28;20045;-72
2022/04/06 10:36:20;;;;;;;11.35;3.97;;;;;;;;;;5015788;28;20053;-69
2022/04/06 10:38:46;;;;;;;;;;;;;;;;;;5032987;28;20029;-70
2022/04/06 10:41:12;;;;;;;4.60;2.90;;;27.10;45.30;;;;;;5032676;28;19928;-70
2022/04/06 10:43:39;;;;;;;5.30;2.80;;;29.90;45.80;;;;;;5033259;28;20021;-71
2022/04/06 10:46:15;;;;;;;6.85;2.90;;;29.80;43.50;;;;;;5032868;28;20032;-69
2022/04/06 10:48:58;;;;;;;18.40;2.90;;;30.40;43.30;;;;;;5034058;28;20060;-70
2022/04/06 10:51:33;;;;;;;11.57;3.30;;;30.90;42.20;;;;;;5033651;28;20378;-70
2022/04/06 10:54:19;;;;;;;10.20;3.00;;;31.80;42.00;;;;;;5034078;28;20101;-69
2022/04/06 10:56:46;;;;;;;7.32;2.72;;;;;;;;;;5033683;28;20030;-70
2022/04/06 10:59:15;;;;;;;6.47;2.47;;;;;;;;;;5033971;28;20155;-69
2022/04/06 11:01:45;;;;;;;9.35;3.67;;;32.50;43.10;;;;;;5016138;28;20029;-70
2022/04/06 11:04:22;;;;;;;5.10;2.80;;;34.00;39.20;;;;;;5016066;28;20030;-70
2022/04/06 11:07:03;;;;;;;15.75;2.83;;;;;;;;;;5033863;28;20029;-70
2022/04/06 11:12:18;;;;;;;8.35;2.40;;;35.00;36.80;;;;;;5033508;28;20065;-71
2022/04/06 11:14:46;;;;;;;8.10;2.83;;;;;;;;;;5015556;28;20029;-71
2022/04/06 11:17:32;;;;;;;7.55;2.83;;;35.90;36.80;;;;;;5033459;28;20057;-72
2022/04/06 11:19:58;;;;;;;5.88;2.80;;;36.70;36.20;;;;;;5033659;28;20083;-69
2022/04/06 11:22:26;;;;;;;3.97;2.00;;;36.90;36.20;;;;;;5015596;28;20502;-68
2022/04/06 11:24:54;;;;;;;9.65;2.35;;;37.10;36.40;;;;;;5033453;28;20029;-68
2022/04/06 11:27:32;;;;;;;2.58;2.38;;;37.30;35.60;;;;;;5033243;28;20546;-69
2022/04/06 11:30:19;;;;;;;3.60;2.25;;;37.70;34.70;;;;;;5033300;28;20512;-69
2022/04/06 11:32:56;;;;;;;5.80;2.65;;;38.10;34.40;;;;;;5033403;28;20039;-71
2022/04/06 11:35:36;;;;;;;2.50;2.30;;;37.70;34.50;;;;;;5033396;28;20096;-69
2022/04/06 11:38:06;;;;;;;2.55;1.85;;;37.60;34.10;;;;;;5015542;28;20030;-72
2022/04/06 11:40:33;;;;;;;2.90;2.55;;;38.20;35.00;;;;;;5015518;28;20030;-70
2022/04/06 11:43:04;;;;;;;4.65;3.08;;;38.50;34.20;;;;;;5033255;28;20515;-70
2022/04/06 11:45:37;;;;;;;;;;;38.80;35.00;;;;;;5033681;28;20021;-70
2022/04/06 11:48:06;;;;;;;6.13;2.65;;;39.10;33.50;;;;;;5033170;28;19905;-69
2022/04/06 11:50:37;;;;;;;5.30;2.30;;;39.20;33.90;;;;;;5015331;28;20037;-69
2022/04/06 11:53:08;;;;;;;4.05;2.15;;;39.00;33.30;;;;;;5015313;28;20033;-69
2022/04/06 11:55:51;;;;;;;9.40;2.78;;;39.60;33.40;;;;;;5032925;28;20032;-69
2022/04/06 11:58:30;;;;;;;3.60;2.08;;;39.60;33.30;;;;;;5015198;28;20569;-73
2022/04/06 12:01:00;;;;;;;5.10;1.55;;;39.90;32.60;;;;;;5033246;28;20025;-70
2022/04/06 12:03:36;;;;;;;6.53;1.67;;;39.50;33.60;;;;;;5033018;28;20108;-71
2022/04/06 12:06:04;;;;;;;1.80;1.65;;;40.00;32.90;;;;;;5032968;28;20061;-66
2022/04/06 12:08:33;;;;;;;9.45;1.70;;;40.30;33.60;;;;;;5032916;28;20029;-67
2022/04/06 12:10:59;;;;;;;3.35;1.30;;;40.80;33.60;;;;;;5032686;28;20038;-66
2022/04/06 12:13:28;;;;;;;1.60;1.50;;;40.80;32.60;;;;;;5033034;28;20029;-67
2022/04/06 12:15:55;;;;;;;2.30;1.45;;;;;;;;;;5014753;28;20108;-67
2022/04/06 12:18:23;;;;;;;3.58;1.52;;;40.80;32.20;;;;;;5032749;28;20551;-67
2022/04/06 12:20:50;;;;;;;6.18;1.67;;;41.00;32.60;;;;;;5032726;28;20109;-67
2022/04/06 12:23:17;;;;;;;3.00;1.55;;;41.40;32.70;;;;;;5032555;28;20048;-67
2022/04/06 12:25:43;;;;;;;2.15;1.33;;;41.50;32.20;;;;;;5032713;28;20032;-67
2022/04/06 12:28:17;;;;;;;2.25;1.48;;;41.40;31.80;;;;;;5014323;28;20025;-67
2022/04/06 12:31:10;;;;;;;1.83;1.33;;;41.60;31.40;;;;;;5032063;28;20034;-67
2022/04/06 12:33:36;;;;;;;5.85;1.20;;;41.90;31.70;;;;;;5028391;28;20478;-67
2022/04/06 12:36:25;;;;;;;3.60;1.60;;;42.00;31.90;;;;;;5015003;28;20120;-67
2022/04/06 12:39:11;;;;;;;4.80;1.38;;;41.70;31.30;;;;;;5035544;28;20116;-66
2022/04/06 12:42:06;;;;;;;2.20;1.63;;;41.90;35.00;;;;;;5036581;28;20056;-67
2022/04/06 12:44:36;;;;;;;2.03;1.70;;;42.30;31.20;;;;;;5036395;28;20025;-65
2022/04/06 12:47:03;;;;;;;3.15;1.50;;;42.60;31.80;;;;;;5018703;28;20485;-68
2022/04/06 12:49:36;;;;;;;2.95;1.88;;;42.70;31.30;;;;;;5036217;28;20030;-66
2022/04/06 12:52:19;;;;;;;2.03;1.60;;;43.00;30.60;;;;;;5037803;28;20386;-70
2022/04/06 12:54:47;;;;;;;2.38;1.85;;;;;;;;;;5054896;28;20416;-70
2022/04/06 12:57:14;;;;;;;6.80;2.42;;;42.70;30.90;;;;;;5055844;28;20028;-70
2022/04/06 12:59:47;;;;;;;5.05;2.20;;;43.00;31.20;;;;;;5055825;28;20029;-69
2022/04/06 13:02:19;;;;;;;3.95;2.25;;;;;;;;;;5055705;28;20462;-70
2022/04/06 13:04:45;;;;;;;6.35;2.58;;;43.10;30.60;;;;;;5055725;28;20037;-69
2022/04/06 13:07:12;;;;;;;6.18;2.30;;;43.70;30.80;;;;;;5055855;28;20104;-70
2022/04/06 13:09:52;;;;;;;8.25;2.58;;;;;;;;;;5055737;28;20025;-70
2022/04/06 13:12:22;;;;;;;4.43;2.60;;;;;;;;;;5037571;28;20079;-69
2022/04/06 13:14:48;;;;;;;4.70;2.65;;;;;;;;;;5055910;28;20086;-69
2022/04/06 13:17:14;;;;;;;6.50;2.53;;;;;;;;;;5055780;28;20045;-70
2022/04/06 13:19:40;;;;;;;4.40;2.47;;;43.60;30.70;;;;;;5055446;28;20492;-72
2022/04/06 13:22:06;;;;;;;8.43;3.20;;;43.80;31.10;;;;;;5055615;28;20029;-69
2022/04/06 13:24:36;;;;;;;7.10;3.40;;;;;;;;;;5055477;28;20028;-70
2022/04/06 13:27:03;;;;;;;3.78;2.75;;;44.20;30.60;;;;;;5055477;28;20029;-70
2022/04/06 13:29:29;;;;;;;3.92;2.72;;;44.50;30.70;;;;;;5055463;28;20056;-70
2022/04/06 13:31:56;;;;;;;7.78;2.83;;;44.90;31.20;;;;;;5055181;28;20474;-71
2022/04/06 13:34:22;;;;;;;4.00;2.70;;;45.10;31.10;;;;;;5055508;28;20029;-71
2022/04/06 13:36:49;;;;;;;9.27;2.78;;;44.90;30.60;;;;;;5055322;28;20465;-69
2022/04/06 13:39:15;;;;;;;6.47;2.58;;;44.90;30.40;;;;;;5037404;28;20049;-68
2022/04/06 13:41:41;;;;;;;3.75;2.28;;;45.10;30.60;;;;;;5037460;28;20108;-69
2022/04/06 13:44:11;;;;;;;3.70;2.70;;;44.80;31.00;;;;;;5037172;28;20057;-69
2022/04/06 13:46:39;;;;;;;6.00;2.55;;;45.00;30.60;;;;;;5055275;28;20033;-69
2022/04/06 13:49:05;;;;;;;3.17;2.40;;;44.70;30.10;;;;;;5054754;28;20486;-70
2022/04/06 13:51:31;;;;;;;2.83;2.10;;;45.00;30.90;;;;;;5055047;28;20090;-70
2022/04/06 13:53:57;;;;;;;3.40;2.00;;;44.50;30.00;;;;;;5055133;28;20553;-70
2022/04/06 13:56:23;;;;;;;2.63;2.33;;;45.00;30.00;;;;;;5055096;28;20024;-70